Time;durP1;ratioP1;P1;durP2;ratioP2;P2;SDS_P1;SDS_P2;PMS_P1;PMS_P2;Temp;Humidity;BMP_temperature;BMP_pressure;BME280_temperature;BME280_humidity;BME280_pressure;Samples;Min_cycle;Max_cycle;Signal;HPM_P1;HPM_P2
2023/01/22 00:02:04;;;;;;;21.42;13.50;;;;;1.10;99373.00;;;;4934233;29;20055;-61
2023/01/22 00:04:31;;;;;;;21.05;11.85;;;;;1.10;99369.00;;;;4933937;29;20184;-62
2023/01/22 00:06:58;;;;;;;18.20;12.27;;;;;1.10;99363.00;;;;4917531;29;20457;-62
2023/01/22 00:09:24;;;;;;;19.00;11.32;;;;;1.10;99382.00;;;;4917650;29;20099;-61
2023/01/22 00:11:51;;;;;;;19.15;12.68;;;;;1.10;99367.00;;;;4934596;29;20460;-61
2023/01/22 00:14:17;;;;;;;17.80;11.80;;;;;1.00;99369.00;;;;4934845;29;20337;-62
2023/01/22 00:16:44;;;;;;;16.33;11.55;;;;;1.00;99364.00;;;;4918493;29;20056;-62
2023/01/22 00:19:11;;;;;;;18.73;11.95;;;;;1.10;99357.00;;;;4938169;29;20103;-61
2023/01/22 00:21:37;;;;;;;18.45;11.88;;;;;1.10;99363.00;;;;4938155;29;20044;-62
2023/01/22 00:24:04;;;;;;;18.48;11.40;;;;;1.10;99354.00;;;;4921046;29;20048;-62
2023/01/22 00:26:30;;;;;;;16.30;10.95;;;;;1.10;99356.00;;;;4937984;29;20039;-61
2023/01/22 00:28:57;;;;;;;18.52;12.15;;;;;1.10;99345.00;;;;4938163;29;20453;-62
2023/01/22 00:31:24;;;;;;;17.40;10.88;;;;;1.10;99351.00;;;;4905069;29;20054;-62
2023/01/22 00:33:50;;;;;;;18.73;11.90;;;;;1.10;99355.00;;;;4905627;29;20086;-61
2023/01/22 00:36:19;;;;;;;19.83;12.13;;;;;1.10;99349.00;;;;4921472;29;20528;-64
2023/01/22 00:38:47;;;;;;;18.15;11.48;;;;;1.10;99352.00;;;;4922138;29;20052;-62
2023/01/22 00:41:16;;;;;;;21.48;12.95;;;;;1.10;99349.00;;;;4921254;29;20043;-62
2023/01/22 00:43:42;;;;;;;20.48;12.48;;;;;1.10;99353.00;;;;4938345;29;20044;-63
2023/01/22 00:46:12;;;;;;;18.88;11.98;;;;;1.20;99348.00;;;;4920074;29;20512;-62
2023/01/22 00:48:39;;;;;;;18.50;12.23;;;;;1.10;99358.00;;;;4937842;29;20056;-62
2023/01/22 00:51:09;;;;;;;21.92;12.57;;;;;1.20;99351.00;;;;4920525;29;20047;-62
2023/01/22 00:53:36;;;;;;;19.38;11.88;;;;;1.20;99351.00;;;;4920864;29;20047;-62
2023/01/22 00:56:03;;;;;;;21.92;12.52;;;;;1.20;99345.00;;;;4936998;29;20571;-62
2023/01/22 00:58:29;;;;;;;19.52;12.00;;;;;1.30;99348.00;;;;4920683;29;20493;-64
2023/01/22 01:00:56;;;;;;;19.02;11.63;;;;;1.30;99349.00;;;;4920100;29;20052;-62
2023/01/22 01:03:26;;;;;;;21.02;12.20;;;;;1.30;99348.00;;;;4920364;29;20142;-62
2023/01/22 01:05:52;;;;;;;19.05;12.45;;;;;1.30;99338.00;;;;4919720;29;20722;-62
2023/01/22 01:08:19;;;;;;;20.77;12.07;;;;;1.30;99336.00;;;;4937383;29;20051;-62
2023/01/22 01:10:45;;;;;;;17.80;12.00;;;;;1.30;99339.00;;;;4920382;29;20052;-61
2023/01/22 01:13:12;;;;;;;16.65;11.63;;;;;1.30;99345.00;;;;4920422;29;20062;-60
2023/01/22 01:15:39;;;;;;;20.52;12.05;;;;;1.30;99334.00;;;;4922190;29;20059;-62
2023/01/22 01:18:07;;;;;;;21.75;12.40;;;;;1.40;99332.00;;;;4922956;29;20187;-62
2023/01/22 01:20:34;;;;;;;17.60;11.68;;;;;1.40;99332.00;;;;4937242;29;20043;-62
2023/01/22 01:23:00;;;;;;;18.88;11.60;;;;;1.30;99336.00;;;;4920124;29;20043;-62
2023/01/22 01:25:27;;;;;;;18.95;12.15;;;;;1.30;99336.00;;;;4936389;29;20075;-63
2023/01/22 01:27:53;;;;;;;16.83;11.15;;;;;1.30;99329.00;;;;4919776;29;20047;-63
2023/01/22 01:30:20;;;;;;;20.90;12.70;;;;;1.40;99337.00;;;;4936810;29;20103;-62
2023/01/22 01:32:48;;;;;;;20.42;12.43;;;;;1.40;99330.00;;;;4937129;29;20455;-62
2023/01/22 01:35:14;;;;;;;18.15;11.82;;;;;1.40;99342.00;;;;4919189;29;20047;-62
2023/01/22 01:37:41;;;;;;;19.20;12.45;;;;;1.40;99334.00;;;;4919400;29;20572;-63
2023/01/22 01:40:08;;;;;;;19.20;12.20;;;;;1.40;99326.00;;;;4919644;29;20058;-62
2023/01/22 01:42:38;;;;;;;21.30;11.65;;;;;1.40;99331.00;;;;4919705;29;20048;-63
2023/01/22 01:45:21;;;;;;;20.98;12.05;;;;;1.40;99332.00;;;;4918946;29;20098;-62
2023/01/22 01:48:13;;;;;;;18.88;11.73;;;;;1.50;99322.00;;;;4919632;29;20052;-63
2023/01/22 01:50:44;;;;;;;18.75;11.73;;;;;1.50;99325.00;;;;4909600;29;20417;-63
2023/01/22 01:53:11;;;;;;;17.63;11.15;;;;;1.40;99318.00;;;;4919411;29;20054;-61
2023/01/22 01:55:38;;;;;;;19.08;12.82;;;;;1.50;99326.00;;;;4919224;29;20496;-64
2023/01/22 01:58:13;;;;;;;20.75;11.90;;;;;1.50;99318.00;;;;4919445;29;20044;-62
2023/01/22 02:00:42;;;;;;;18.05;11.75;;;;;1.50;99329.00;;;;4919407;29;20048;-62
2023/01/22 02:03:10;;;;;;;19.20;11.85;;;;;1.50;99326.00;;;;4918964;29;20055;-61
2023/01/22 02:05:37;;;;;;;18.23;11.57;;;;;1.50;99326.00;;;;4936268;29;20047;-62
2023/01/22 02:08:07;;;;;;;18.70;12.63;;;;;1.50;99326.00;;;;4919095;29;20083;-62
2023/01/22 02:10:35;;;;;;;16.50;11.43;;;;;1.50;99327.00;;;;4919181;29;20098;-63
2023/01/22 02:13:07;;;;;;;16.77;10.77;;;;;1.50;99323.00;;;;4936026;29;20043;-62
2023/01/22 02:15:35;;;;;;;18.95;12.32;;;;;1.30;99324.00;;;;4903227;29;20056;-62
2023/01/22 02:18:02;;;;;;;16.98;11.10;;;;;1.30;99320.00;;;;4936043;29;20126;-64
2023/01/22 02:20:37;;;;;;;16.30;11.13;;;;;1.40;99318.00;;;;4918813;29;20054;-62
2023/01/22 02:23:06;;;;;;;19.83;11.98;;;;;1.40;99316.00;;;;4936214;29;20102;-62
2023/01/22 02:25:33;;;;;;;18.25;11.00;;;;;1.40;99310.00;;;;4918292;29;20103;-62
2023/01/22 02:28:01;;;;;;;18.63;11.73;;;;;1.40;99316.00;;;;4918872;29;20139;-62
2023/01/22 02:30:27;;;;;;;19.30;11.60;;;;;1.50;99320.00;;;;4918970;29;20071;-62
2023/01/22 02:32:55;;;;;;;20.05;11.57;;;;;1.50;99308.00;;;;4918965;29;20054;-62
2023/01/22 02:35:22;;;;;;;18.45;10.98;;;;;1.50;99317.00;;;;4918176;29;20148;-63
2023/01/22 02:37:49;;;;;;;16.90;10.93;;;;;1.50;99315.00;;;;4903141;29;20086;-64
2023/01/22 02:40:16;;;;;;;18.08;11.40;;;;;1.50;99307.00;;;;4917934;29;20493;-63
2023/01/22 02:42:43;;;;;;;17.90;11.48;;;;;1.50;99310.00;;;;4918558;29;20404;-62
2023/01/22 02:45:10;;;;;;;19.83;11.70;;;;;1.50;99313.00;;;;4918308;29;20107;-62
2023/01/22 02:47:37;;;;;;;18.13;11.05;;;;;1.60;99307.00;;;;4918656;29;20071;-62
2023/01/22 02:50:05;;;;;;;17.42;11.45;;;;;1.50;99309.00;;;;4919639;29;20052;-60
2023/01/22 02:52:32;;;;;;;19.10;12.07;;;;;1.30;99305.00;;;;4936729;29;20039;-64
2023/01/22 02:54:58;;;;;;;19.08;11.32;;;;;1.30;99308.00;;;;4918101;29;20048;-61
2023/01/22 02:57:25;;;;;;;15.95;10.75;;;;;1.30;99309.00;;;;4918839;29;20048;-65
2023/01/22 02:59:51;;;;;;;20.73;11.23;;;;;1.40;99314.00;;;;4935798;29;20122;-64
2023/01/22 03:02:18;;;;;;;18.40;11.73;;;;;1.50;99300.00;;;;4902403;29;20518;-62
2023/01/22 03:04:48;;;;;;;17.05;10.93;;;;;1.40;99304.00;;;;4918117;29;20518;-63
2023/01/22 03:07:16;;;;;;;17.83;11.18;;;;;1.40;99299.00;;;;4918493;29;20056;-63
2023/01/22 03:09:44;;;;;;;16.50;10.88;;;;;1.40;99293.00;;;;4918589;29;20052;-62
2023/01/22 03:12:11;;;;;;;17.83;10.95;;;;;1.40;99294.00;;;;4918126;29;20039;-63
2023/01/22 03:22:54;;;;;;;17.80;10.85;;;;;1.60;99295.00;;;;4918132;29;20059;-62
2023/01/22 03:25:21;;;;;;;17.30;11.30;;;;;1.60;99288.00;;;;4917772;29;20608;-63
2023/01/22 03:30:35;;;;;;;16.70;10.73;;;;;1.60;99287.00;;;;4918002;29;20044;-61
2023/01/22 03:33:02;;;;;;;17.15;10.98;;;;;1.60;99280.00;;;;4918095;29;20072;-62
2023/01/22 03:35:29;;;;;;;18.70;10.50;;;;;1.50;99289.00;;;;4917351;29;20051;-62
2023/01/22 03:38:12;;;;;;;19.20;11.30;;;;;1.40;99288.00;;;;4918453;29;20415;-62
2023/01/22 03:40:38;;;;;;;17.95;11.32;;;;;1.40;99287.00;;;;4917612;29;20043;-62
2023/01/22 03:43:05;;;;;;;17.67;10.50;;;;;1.40;99288.00;;;;4917819;29;20535;-63
2023/01/22 03:45:33;;;;;;;18.27;11.70;;;;;1.50;99291.00;;;;4917151;29;20474;-63
2023/01/22 03:48:01;;;;;;;16.17;10.57;;;;;1.50;99292.00;;;;4935015;29;20054;-62
2023/01/22 03:50:34;;;;;;;16.65;10.68;;;;;1.50;99294.00;;;;4902465;29;20047;-62
2023/01/22 03:53:02;;;;;;;16.42;10.18;;;;;1.50;99298.00;;;;4916602;29;20103;-62
2023/01/22 03:55:30;;;;;;;17.70;10.82;;;;;1.40;99289.00;;;;4901242;29;20122;-61
2023/01/22 03:57:57;;;;;;;14.90;10.48;;;;;1.40;99294.00;;;;4934404;29;20043;-61
2023/01/22 04:00:23;;;;;;;15.45;10.25;;;;;1.30;99284.00;;;;4917426;29;20051;-61
2023/01/22 04:02:52;;;;;;;17.45;11.07;;;;;1.40;99289.00;;;;4917451;29;20135;-61
2023/01/22 04:05:23;;;;;;;17.90;11.07;;;;;1.30;99289.00;;;;4917270;29;20062;-62
2023/01/22 04:07:50;;;;;;;17.35;10.48;;;;;1.40;99296.00;;;;4934822;29;20039;-62
2023/01/22 04:10:20;;;;;;;16.08;10.32;;;;;1.40;99292.00;;;;4917577;29;20044;-61
2023/01/22 04:12:47;;;;;;;17.88;10.95;;;;;1.30;99295.00;;;;4917704;29;20055;-61
2023/01/22 04:15:17;;;;;;;16.25;10.95;;;;;1.30;99297.00;;;;4901942;29;20134;-62
2023/01/22 04:17:45;;;;;;;16.70;10.63;;;;;1.30;99297.00;;;;4917489;29;20082;-62
2023/01/22 04:20:28;;;;;;;17.95;11.13;;;;;1.40;99300.00;;;;4917561;29;20285;-61
2023/01/22 04:23:19;;;;;;;15.18;10.32;;;;;1.40;99296.00;;;;4929098;29;20140;-62
2023/01/22 04:25:48;;;;;;;16.02;10.05;;;;;1.40;99294.00;;;;4916821;29;20576;-62
2023/01/22 04:28:15;;;;;;;16.88;11.02;;;;;1.40;99294.00;;;;4917548;29;20400;-61
2023/01/22 04:30:45;;;;;;;18.60;10.73;;;;;1.50;99306.00;;;;4917433;29;20070;-62
2023/01/22 04:33:31;;;;;;;15.90;11.27;;;;;1.50;99299.00;;;;4934892;29;20066;-61
2023/01/22 04:36:03;;;;;;;15.90;10.35;;;;;1.40;99300.00;;;;4916971;29;20142;-62
2023/01/22 04:38:30;;;;;;;16.42;10.77;;;;;1.40;99289.00;;;;4917284;29;20052;-62
2023/01/22 04:40:56;;;;;;;15.48;9.98;;;;;1.30;99304.00;;;;4917259;29;20442;-62
2023/01/22 04:43:23;;;;;;;18.15;11.20;;;;;1.40;99295.00;;;;4917471;29;20333;-61
2023/01/22 04:45:50;;;;;;;16.90;10.15;;;;;1.50;99296.00;;;;4916533;29;20580;-61
2023/01/22 04:48:19;;;;;;;15.90;10.63;;;;;1.60;99295.00;;;;4917302;29;20047;-61
2023/01/22 04:50:45;;;;;;;15.55;10.70;;;;;1.60;99291.00;;;;4917243;29;20044;-61
2023/01/22 04:53:12;;;;;;;16.60;10.45;;;;;1.60;99289.00;;;;4917204;29;20043;-62
2023/01/22 04:55:40;;;;;;;13.55;8.98;;;;;1.60;99288.00;;;;4916794;29;20043;-62
2023/01/22 04:58:11;;;;;;;17.10;10.27;;;;;1.60;99287.00;;;;4917216;29;20055;-62
2023/01/22 05:00:39;;;;;;;13.90;9.18;;;;;1.50;99283.00;;;;4917154;29;20048;-61
2023/01/22 05:03:07;;;;;;;16.92;10.00;;;;;1.40;99287.00;;;;4920539;29;20054;-61
2023/01/22 05:05:35;;;;;;;15.07;9.88;;;;;1.40;99288.00;;;;4922207;29;20055;-62
2023/01/22 05:08:01;;;;;;;14.32;9.05;;;;;1.40;99287.00;;;;4921747;29;20059;-61
2023/01/22 05:10:30;;;;;;;13.50;9.00;;;;;1.40;99290.00;;;;4925886;29;20051;-61
2023/01/22 05:12:56;;;;;;;16.17;10.18;;;;;1.40;99288.00;;;;4948056;29;20501;-61
2023/01/22 05:15:24;;;;;;;15.60;10.02;;;;;1.40;99288.00;;;;4925740;29;20155;-62
2023/01/22 05:17:54;;;;;;;13.82;9.35;;;;;1.30;99290.00;;;;4920854;29;20083;-62
2023/01/22 05:20:24;;;;;;;14.02;8.73;;;;;1.30;99294.00;;;;4920641;29;20099;-61
2023/01/22 05:22:51;;;;;;;13.70;8.70;;;;;1.20;99293.00;;;;4920562;29;20116;-61
2023/01/22 05:25:22;;;;;;;14.32;9.55;;;;;1.20;99294.00;;;;4919763;29;20052;-61
2023/01/22 05:27:49;;;;;;;16.88;8.95;;;;;1.20;99291.00;;;;4920613;29;20047;-61
2023/01/22 05:30:27;;;;;;;13.90;8.88;;;;;1.20;99289.00;;;;4906513;29;20530;-61
2023/01/22 05:32:59;;;;;;;16.85;9.82;;;;;1.20;99296.00;;;;4920921;29;20469;-61
2023/01/22 05:35:27;;;;;;;16.65;9.70;;;;;1.20;99289.00;;;;4919743;29;20058;-61
2023/01/22 05:37:55;;;;;;;13.32;8.82;;;;;1.10;99306.00;;;;4920196;29;20055;-62
2023/01/22 05:40:22;;;;;;;14.65;9.27;;;;;1.00;99289.00;;;;4920045;29;20142;-61
2023/01/22 05:42:48;;;;;;;16.70;9.75;;;;;1.00;99298.00;;;;4920013;29;20052;-62
2023/01/22 05:45:15;;;;;;;13.23;8.80;;;;;0.90;99310.00;;;;4919632;29;20051;-61
2023/01/22 05:47:57;;;;;;;15.32;9.25;;;;;0.90;99312.00;;;;4920062;29;20047;-61
2023/01/22 05:50:35;;;;;;;14.75;9.25;;;;;0.90;99317.00;;;;4919879;29;20432;-64
2023/01/22 05:53:07;;;;;;;12.43;8.57;;;;;0.80;99313.00;;;;4919667;29;20504;-62
2023/01/22 05:55:34;;;;;;;13.48;9.45;;;;;0.80;99315.00;;;;4919218;29;20058;-61
2023/01/22 05:58:02;;;;;;;13.57;8.88;;;;;0.90;99325.00;;;;4904402;29;20082;-62
2023/01/22 06:00:32;;;;;;;15.18;10.10;;;;;0.90;99320.00;;;;4919728;29;20075;-62
2023/01/22 06:03:01;;;;;;;14.00;9.38;;;;;0.90;99319.00;;;;4919254;29;20055;-61
2023/01/22 06:05:35;;;;;;;15.52;9.73;;;;;0.90;99323.00;;;;4919288;29;20052;-61
2023/01/22 06:08:05;;;;;;;12.73;8.70;;;;;0.90;99323.00;;;;4919690;29;20059;-62
2023/01/22 06:10:39;;;;;;;12.75;8.10;;;;;0.90;99316.00;;;;4920201;29;20052;-62
2023/01/22 06:13:06;;;;;;;14.55;8.48;;;;;1.00;99319.00;;;;4920548;29;20063;-62
2023/01/22 06:15:32;;;;;;;12.98;8.68;;;;;1.00;99314.00;;;;4919514;29;20054;-62
2023/01/22 06:18:12;;;;;;;13.52;8.73;;;;;1.00;99323.00;;;;4920798;29;20087;-62
2023/01/22 06:20:39;;;;;;;12.98;9.10;;;;;1.00;99320.00;;;;4937885;29;20497;-61
2023/01/22 06:23:07;;;;;;;14.90;8.60;;;;;1.00;99326.00;;;;4920391;29;20051;-61
2023/01/22 06:25:33;;;;;;;13.50;8.30;;;;;1.00;99319.00;;;;4920416;29;20047;-62
2023/01/22 06:28:09;;;;;;;12.93;8.25;;;;;1.00;99322.00;;;;4921370;29;20043;-62
2023/01/22 06:30:38;;;;;;;12.85;8.93;;;;;1.00;99326.00;;;;4920889;29;20051;-62
2023/01/22 06:33:04;;;;;;;13.57;8.52;;;;;1.10;99324.00;;;;4920525;29;20285;-62
2023/01/22 06:35:31;;;;;;;12.18;8.63;;;;;1.10;99322.00;;;;4920038;29;20059;-61
2023/01/22 06:37:57;;;;;;;10.80;7.55;;;;;1.20;99330.00;;;;4919867;29;20044;-62
2023/01/22 06:40:24;;;;;;;9.70;7.90;;;;;1.20;99326.00;;;;4920201;29;20056;-62
2023/01/22 06:42:51;;;;;;;12.98;8.48;;;;;1.20;99325.00;;;;4919684;29;20048;-62
2023/01/22 06:45:17;;;;;;;12.90;7.93;;;;;1.20;99321.00;;;;4936324;29;20052;-61
2023/01/22 06:47:49;;;;;;;12.95;9.00;;;;;1.20;99323.00;;;;4919563;29;20099;-62
2023/01/22 06:50:16;;;;;;;33.42;17.15;;;;;1.20;99330.00;;;;4937063;29;20043;-62
2023/01/22 06:52:43;;;;;;;33.97;19.75;;;;;1.20;99324.00;;;;4936208;29;20444;-62
2023/01/22 06:55:09;;;;;;;14.50;9.13;;;;;1.30;99326.00;;;;4918623;29;20075;-61
2023/01/22 06:57:37;;;;;;;13.88;9.00;;;;;1.30;99327.00;;;;4919997;29;20073;-62
2023/01/22 07:00:05;;;;;;;12.13;8.05;;;;;1.30;99332.00;;;;4937786;29;20040;-60
2023/01/22 07:02:31;;;;;;;12.73;8.75;;;;;1.30;99331.00;;;;4919776;29;20039;-61
2023/01/22 07:04:58;;;;;;;13.85;8.70;;;;;1.40;99346.00;;;;4919389;29;20051;-61
2023/01/22 07:07:24;;;;;;;11.52;7.97;;;;;1.50;99350.00;;;;4936745;29;20052;-61
2023/01/22 07:09:51;;;;;;;12.40;8.25;;;;;1.50;99346.00;;;;4935928;29;20047;-61
2023/01/22 07:12:17;;;;;;;13.82;8.60;;;;;1.50;99347.00;;;;4935495;29;20043;-61
2023/01/22 07:14:44;;;;;;;10.82;7.60;;;;;1.50;99352.00;;;;4935061;29;20054;-61
2023/01/22 07:17:10;;;;;;;10.50;7.93;;;;;1.50;99350.00;;;;4935933;29;20047;-61
2023/01/22 07:19:37;;;;;;;11.13;7.97;;;;;1.40;99349.00;;;;4903790;29;20048;-62
2023/01/22 07:22:03;;;;;;;14.18;8.98;;;;;1.50;99359.00;;;;4936181;29;20043;-62
2023/01/22 07:24:30;;;;;;;14.68;8.50;;;;;1.50;99357.00;;;;4935021;29;20095;-62
2023/01/22 07:26:56;;;;;;;11.10;8.43;;;;;1.40;99372.00;;;;4935316;29;20107;-62
2023/01/22 07:29:22;;;;;;;12.25;8.32;;;;;1.50;99369.00;;;;4918562;29;20055;-61
2023/01/22 07:31:49;;;;;;;11.77;7.65;;;;;1.60;99370.00;;;;4935476;29;20103;-61
2023/01/22 07:34:15;;;;;;;12.63;8.50;;;;;1.60;99379.00;;;;4917956;29;20063;-61
2023/01/22 07:36:42;;;;;;;12.60;8.85;;;;;1.50;99382.00;;;;4935410;29;20329;-61
2023/01/22 07:39:08;;;;;;;13.02;8.48;;;;;1.50;99382.00;;;;4935438;29;20452;-61
2023/01/22 07:41:35;;;;;;;12.60;8.55;;;;;1.40;99374.00;;;;4935146;29;20044;-61
2023/01/22 07:44:10;;;;;;;11.88;8.57;;;;;1.40;99384.00;;;;4918167;29;20044;-61
2023/01/22 07:46:40;;;;;;;13.05;8.23;;;;;1.40;99384.00;;;;4918406;29;20043;-61
2023/01/22 07:49:06;;;;;;;12.45;8.45;;;;;1.30;99382.00;;;;4935063;29;20091;-61
2023/01/22 07:51:33;;;;;;;11.30;7.85;;;;;1.40;99383.00;;;;4918575;29;20114;-61
2023/01/22 07:54:00;;;;;;;10.35;7.80;;;;;1.40;99391.00;;;;4918392;29;20098;-61
2023/01/22 07:56:26;;;;;;;12.52;8.25;;;;;1.50;99400.00;;;;4917920;29;20054;-60
2023/01/22 07:58:53;;;;;;;12.38;8.50;;;;;1.50;99396.00;;;;4918187;29;20051;-61
2023/01/22 08:01:19;;;;;;;11.27;8.55;;;;;1.50;99395.00;;;;4918254;29;20476;-61
2023/01/22 08:03:46;;;;;;;11.80;8.10;;;;;1.40;99393.00;;;;4918165;29;20052;-61
2023/01/22 08:06:16;;;;;;;10.80;7.38;;;;;1.50;99399.00;;;;4934386;29;20079;-62
2023/01/22 08:08:43;;;;;;;10.27;7.70;;;;;1.60;99398.00;;;;4918445;29;20056;-62
2023/01/22 08:11:09;;;;;;;10.45;7.95;;;;;1.70;99407.00;;;;4918135;29;20520;-62
2023/01/22 08:13:36;;;;;;;11.63;8.10;;;;;1.70;99421.00;;;;4934753;29;20044;-61
2023/01/22 08:16:02;;;;;;;11.27;8.05;;;;;1.60;99417.00;;;;4934392;29;20099;-62
2023/01/22 08:18:29;;;;;;;12.10;7.95;;;;;1.60;99423.00;;;;4918247;29;20561;-60
2023/01/22 08:20:59;;;;;;;11.15;8.50;;;;;1.60;99424.00;;;;4934881;29;20054;-60
2023/01/22 08:23:27;;;;;;;25.52;15.20;;;;;1.60;99417.00;;;;4917808;29;20051;-61
2023/01/22 08:25:58;;;;;;;13.30;8.82;;;;;1.60;99424.00;;;;4917459;29;20044;-62
2023/01/22 08:28:25;;;;;;;10.88;7.68;;;;;1.70;99430.00;;;;4917856;29;20056;-61
2023/01/22 08:30:58;;;;;;;11.55;8.05;;;;;1.70;99433.00;;;;4934575;29;20051;-61
2023/01/22 08:33:25;;;;;;;11.25;8.00;;;;;1.70;99439.00;;;;4917592;29;20489;-63
2023/01/22 08:35:52;;;;;;;11.70;8.13;;;;;1.70;99428.00;;;;4934137;29;20048;-61
2023/01/22 08:38:19;;;;;;;12.15;7.85;;;;;1.70;99430.00;;;;4918745;29;20047;-61
2023/01/22 08:40:50;;;;;;;12.00;8.07;;;;;1.70;99426.00;;;;4921639;29;20535;-61
2023/01/22 08:43:17;;;;;;;10.55;7.28;;;;;1.70;99430.00;;;;4938384;29;20048;-61
2023/01/22 08:45:47;;;;;;;9.63;6.68;;;;;1.70;99417.00;;;;4920653;29;20052;-61
2023/01/22 08:48:13;;;;;;;11.98;8.18;;;;;1.70;99430.00;;;;4921492;29;20055;-60
2023/01/22 08:50:40;;;;;;;8.88;6.30;;;;;1.70;99426.00;;;;4921390;29;20052;-61
2023/01/22 08:53:06;;;;;;;8.73;6.70;;;;;1.70;99424.00;;;;4921540;29;20071;-63
2023/01/22 08:55:33;;;;;;;9.30;6.40;;;;;1.80;99428.00;;;;4937891;29;20050;-62
2023/01/22 08:57:59;;;;;;;7.78;6.68;;;;;1.80;99436.00;;;;4938182;29;20110;-61
2023/01/22 09:00:26;;;;;;;9.52;7.07;;;;;1.90;99443.00;;;;4921231;29;20123;-62
2023/01/22 09:02:57;;;;;;;11.27;6.97;;;;;1.90;99445.00;;;;4920661;29;20548;-61
2023/01/22 09:05:25;;;;;;;6.75;5.65;;;;;1.90;99437.00;;;;4937652;29;20055;-62
2023/01/22 09:07:52;;;;;;;8.63;6.45;;;;;1.90;99444.00;;;;4938549;29;20059;-62
2023/01/22 09:10:18;;;;;;;8.50;6.43;;;;;1.90;99439.00;;;;4949267;29;20165;-62
2023/01/22 09:12:47;;;;;;;8.07;6.68;;;;;2.00;99445.00;;;;4950308;29;20068;-61
2023/01/22 09:15:14;;;;;;;9.13;6.65;;;;;2.10;99446.00;;;;4939547;29;20126;-62
2023/01/22 09:17:41;;;;;;;9.90;7.32;;;;;2.20;99442.00;;;;4937957;29;20059;-62
2023/01/22 09:20:08;;;;;;;9.35;6.93;;;;;2.20;99446.00;;;;4920858;29;20124;-62
2023/01/22 09:22:35;;;;;;;9.70;7.35;;;;;2.30;99455.00;;;;4920770;29;20047;-62
2023/01/22 09:25:01;;;;;;;8.38;6.97;;;;;2.30;99462.00;;;;4937376;29;20056;-62
2023/01/22 09:27:28;;;;;;;8.60;7.10;;;;;2.40;99453.00;;;;4921443;29;20052;-62
2023/01/22 09:29:54;;;;;;;9.38;6.35;;;;;2.50;99464.00;;;;4938058;29;20110;-62
2023/01/22 09:32:21;;;;;;;7.30;5.88;;;;;2.60;99459.00;;;;4920492;29;20044;-62
2023/01/22 09:34:47;;;;;;;8.45;6.25;;;;;2.70;99460.00;;;;4919949;29;20074;-60
2023/01/22 09:37:14;;;;;;;8.75;5.90;;;;;2.80;99457.00;;;;4920377;29;20051;-61
2023/01/22 09:39:41;;;;;;;10.90;7.85;;;;;2.80;99464.00;;;;4937278;29;20044;-61
2023/01/22 09:42:16;;;;;;;9.55;6.85;;;;;2.90;99471.00;;;;4937053;29;20099;-62
2023/01/22 09:44:46;;;;;;;6.80;5.68;;;;;2.80;99473.00;;;;4936842;29;20051;-61
2023/01/22 09:47:24;;;;;;;5.93;5.05;;;;;2.80;99467.00;;;;4920150;29;20051;-61
2023/01/22 09:50:03;;;;;;;5.63;4.97;;;;;2.80;99473.00;;;;4935876;29;20192;-61
2023/01/22 09:52:32;;;;;;;8.68;5.72;;;;;2.70;99473.00;;;;4905519;29;20055;-61
2023/01/22 09:54:59;;;;;;;8.38;5.72;;;;;2.70;99466.00;;;;4936379;29;20102;-61
2023/01/22 09:57:25;;;;;;;6.68;5.32;;;;;2.60;99466.00;;;;4937028;29;20051;-61
2023/01/22 09:59:58;;;;;;;8.73;5.50;;;;;2.50;99468.00;;;;4920891;29;20130;-61
2023/01/22 10:02:42;;;;;;;9.60;5.35;;;;;2.40;99474.00;;;;4936460;29;20095;-62
2023/01/22 10:05:35;;;;;;;7.97;6.20;;;;;2.40;99474.00;;;;4919579;29;20047;-62
2023/01/22 10:08:11;;;;;;;6.90;5.85;;;;;2.40;99468.00;;;;4936751;29;20130;-61
2023/01/22 10:10:38;;;;;;;8.73;5.95;;;;;2.50;99473.00;;;;4919573;29;20429;-62
2023/01/22 10:13:10;;;;;;;10.13;5.10;;;;;2.60;99476.00;;;;4936586;29;20050;-61
2023/01/22 10:15:37;;;;;;;6.78;5.40;;;;;2.50;99469.00;;;;4936063;29;20397;-61
2023/01/22 10:18:21;;;;;;;9.02;4.93;;;;;2.60;99472.00;;;;4936683;29;20074;-61
2023/01/22 10:20:48;;;;;;;6.38;4.90;;;;;2.70;99474.00;;;;4919999;29;20417;-61
2023/01/22 10:23:22;;;;;;;6.10;5.10;;;;;2.60;99476.00;;;;4936257;29;20039;-61
2023/01/22 10:25:52;;;;;;;6.97;5.77;;;;;2.70;99473.00;;;;4935929;29;20046;-61
2023/01/22 10:28:24;;;;;;;5.00;4.50;;;;;2.80;99472.00;;;;4919659;29;20367;-61
2023/01/22 10:30:56;;;;;;;4.75;4.25;;;;;2.80;99483.00;;;;4936434;29;20052;-62
2023/01/22 10:33:25;;;;;;;4.97;4.55;;;;;2.80;99471.00;;;;4936466;29;20051;-61
2023/01/22 10:35:55;;;;;;;4.40;4.00;;;;;2.80;99474.00;;;;4935607;29;20102;-63
2023/01/22 10:38:30;;;;;;;6.93;5.00;;;;;2.90;99468.00;;;;4936208;29;20496;-61
2023/01/22 10:41:01;;;;;;;9.10;4.70;;;;;2.90;99475.00;;;;4935963;29;20051;-64
2023/01/22 10:43:36;;;;;;;27.90;16.00;;;;;2.80;99477.00;;;;4936173;29;20048;-62
2023/01/22 10:46:17;;;;;;;6.18;4.65;;;;;2.80;99477.00;;;;4935502;29;20047;-62
2023/01/22 10:48:43;;;;;;;7.40;4.72;;;;;2.70;99482.00;;;;4936083;29;20061;-61
2023/01/22 10:51:16;;;;;;;6.55;4.25;;;;;2.70;99472.00;;;;4936144;29;20449;-62
2023/01/22 10:53:48;;;;;;;5.30;4.13;;;;;2.60;99480.00;;;;4935948;29;20044;-62
2023/01/22 10:56:26;;;;;;;4.93;4.43;;;;;2.50;99472.00;;;;4935470;29;20063;-63
2023/01/22 10:58:54;;;;;;;6.95;4.82;;;;;2.50;99473.00;;;;4919310;29;20055;-61
2023/01/22 11:01:30;;;;;;;5.10;4.60;;;;;2.50;99484.00;;;;4918825;29;20545;-60
2023/01/22 11:03:56;;;;;;;5.95;4.38;;;;;2.50;99468.00;;;;4936449;29;20444;-60
2023/01/22 11:06:36;;;;;;;5.72;4.60;;;;;2.40;99468.00;;;;4919207;29;20408;-60
2023/01/22 11:09:26;;;;;;;6.53;4.93;;;;;2.50;99471.00;;;;4936177;29;20050;-62
2023/01/22 11:12:11;;;;;;;5.25;4.75;;;;;2.50;99472.00;;;;4936144;29;20427;-61
2023/01/22 11:14:38;;;;;;;5.30;4.63;;;;;2.50;99479.00;;;;4935480;29;20059;-61
2023/01/22 11:17:21;;;;;;;5.35;4.60;;;;;2.60;99477.00;;;;4935723;29;20117;-62
2023/01/22 11:19:57;;;;;;;6.22;4.90;;;;;2.60;99479.00;;;;4918459;29;20055;-61
2023/01/22 11:22:32;;;;;;;9.55;5.88;;;;;2.60;99481.00;;;;4935499;29;20110;-61
2023/01/22 11:24:58;;;;;;;5.25;4.70;;;;;2.60;99483.00;;;;4917854;29;20091;-61
2023/01/22 11:27:36;;;;;;;6.55;4.95;;;;;2.60;99484.00;;;;4918802;29;20059;-62
2023/01/22 11:30:15;;;;;;;6.55;5.38;;;;;2.60;99484.00;;;;4918835;29;20056;-61
2023/01/22 11:32:58;;;;;;;7.47;5.40;;;;;2.60;99481.00;;;;4935493;29;20396;-61
2023/01/22 11:35:43;;;;;;;7.00;5.75;;;;;2.50;99475.00;;;;4918031;29;20062;-61
2023/01/22 11:38:09;;;;;;;7.43;5.75;;;;;2.50;99471.00;;;;4935465;29;20044;-62
2023/01/22 11:41:07;;;;;;;7.78;5.50;;;;;2.60;99470.00;;;;4935327;29;20404;-61
2023/01/22 11:43:45;;;;;;;8.18;6.15;;;;;2.70;99478.00;;;;4918118;29;20066;-62
2023/01/22 11:46:30;;;;;;;5.28;4.45;;;;;2.60;99473.00;;;;4917777;29;20055;-62
2023/01/22 11:49:02;;;;;;;7.10;6.10;;;;;2.50;99484.00;;;;4918071;29;20048;-62
2023/01/22 11:51:31;;;;;;;5.60;4.70;;;;;2.50;99472.00;;;;4918279;29;20080;-62
2023/01/22 11:54:24;;;;;;;6.82;5.30;;;;;2.50;99472.00;;;;4917890;29;20051;-62
2023/01/22 11:57:18;;;;;;;6.75;5.68;;;;;2.50;99480.00;;;;4935037;29;20050;-61
2023/01/22 12:00:23;;;;;;;5.97;5.05;;;;;2.40;99474.00;;;;4935060;29;20047;-62
2023/01/22 12:02:56;;;;;;;;;;;;;2.40;99467.00;;;;4903130;29;20511;-61
2023/01/22 12:05:41;;;;;;;6.28;5.25;;;;;2.40;99467.00;;;;4934365;29;20348;-61
2023/01/22 12:08:25;;;;;;;25.17;15.30;;;;;2.40;99467.00;;;;4918186;29;20044;-62
2023/01/22 12:11:15;;;;;;;7.25;5.63;;;;;2.50;99471.00;;;;4935083;29;20269;-62
2023/01/22 12:14:22;;;;;;;5.80;5.25;;;;;2.50;99465.00;;;;4919441;29;20051;-63
2023/01/22 12:16:59;;;;;;;6.88;5.40;;;;;2.60;99473.00;;;;4938866;29;20058;-61
2023/01/22 12:20:22;;;;;;;6.00;5.40;;;;;2.70;99470.00;;;;4922006;29;20461;-64
2023/01/22 12:23:06;;;;;;;8.05;5.22;;;;;2.80;99475.00;;;;4920027;29;20074;-63
2023/01/22 12:25:40;;;;;;;6.38;5.32;;;;;2.80;99470.00;;;;4938203;29;20047;-61
2023/01/22 12:28:21;;;;;;;5.95;5.35;;;;;2.90;99474.00;;;;4938732;29;20110;-60
2023/01/22 12:31:10;;;;;;;5.60;4.57;;;;;2.90;99465.00;;;;4938903;29;20115;-62
2023/01/22 12:33:40;;;;;;;5.25;4.75;;;;;2.90;99462.00;;;;4938794;29;20325;-62
2023/01/22 12:36:12;;;;;;;5.53;4.68;;;;;3.00;99468.00;;;;4920921;29;20138;-61
2023/01/22 12:38:47;;;;;;;6.38;4.82;;;;;3.20;99469.00;;;;4921957;29;20048;-61
2023/01/22 12:41:28;;;;;;;7.90;4.78;;;;;3.20;99477.00;;;;4922080;29;20051;-61
2023/01/22 12:43:58;;;;;;;6.55;4.40;;;;;3.20;99472.00;;;;4938845;29;20090;-62